createdAt,value
2017-11-08T00:01:15.538Z,992.75
2017-11-08T00:02:15.469Z,992.77
2017-11-08T00:04:08.841Z,992.77
2017-11-08T00:05:08.803Z,992.77
2017-11-08T00:07:02.168Z,992.76
2017-11-08T00:08:02.122Z,992.71
2017-11-08T00:09:55.488Z,992.71
2017-11-08T00:10:55.447Z,992.68
2017-11-08T00:12:48.821Z,992.64
2017-11-08T00:13:48.800Z,992.62
2017-11-08T00:15:42.164Z,992.58
2017-11-08T00:16:42.122Z,992.55
2017-11-08T00:18:35.479Z,992.56
2017-11-08T00:19:35.441Z,992.58
2017-11-08T00:21:29.814Z,992.58
2017-11-08T00:22:29.767Z,992.60
2017-11-08T00:24:23.128Z,992.58
2017-11-08T00:25:23.087Z,992.58
2017-11-08T00:27:16.476Z,992.50
2017-11-08T00:28:16.417Z,992.48
2017-11-08T00:30:09.769Z,992.42
2017-11-08T00:31:09.728Z,992.38
2017-11-08T00:33:03.087Z,992.33
2017-11-08T00:34:03.043Z,992.32
2017-11-08T00:35:56.399Z,992.35
2017-11-08T00:36:56.358Z,992.30
2017-11-08T00:38:49.728Z,992.28
2017-11-08T00:39:49.698Z,992.20
2017-11-08T00:41:43.054Z,992.20
2017-11-08T00:42:43.002Z,992.18
2017-11-08T00:44:36.393Z,992.25
2017-11-08T00:45:36.326Z,992.24
2017-11-08T00:47:30.583Z,992.26
2017-11-08T00:48:30.542Z,992.26
2017-11-08T00:50:26.421Z,992.35
2017-11-08T00:51:26.369Z,992.38
2017-11-08T00:53:19.747Z,992.43
2017-11-08T00:54:19.711Z,992.38
2017-11-08T00:56:13.092Z,992.39
2017-11-08T00:57:13.054Z,992.36
2017-11-08T00:59:06.411Z,992.41
2017-11-08T01:00:06.368Z,992.40
2017-11-08T01:01:59.751Z,992.32
2017-11-08T01:02:59.697Z,992.22
2017-11-08T01:04:53.051Z,992.22
2017-11-08T01:05:53.020Z,992.15
2017-11-08T01:07:46.380Z,992.09
2017-11-08T01:08:46.328Z,992.09
2017-11-08T01:10:39.749Z,992.12
2017-11-08T01:11:39.685Z,992.11
2017-11-08T01:13:33.013Z,992.08
2017-11-08T01:14:32.972Z,992.08
2017-11-08T01:16:26.333Z,992.13
2017-11-08T01:17:26.292Z,992.12
2017-11-08T01:19:23.032Z,992.06
2017-11-08T01:20:22.995Z,992.11
2017-11-08T01:22:16.360Z,992.13
2017-11-08T01:23:16.320Z,992.14
2017-11-08T01:25:09.715Z,992.11
2017-11-08T01:26:09.651Z,992.08
2017-11-08T01:28:03.018Z,992.14
2017-11-08T01:29:02.978Z,992.09
2017-11-08T01:30:58.840Z,992.20
2017-11-08T01:31:58.803Z,992.22
2017-11-08T01:33:52.165Z,992.31
2017-11-08T01:34:52.123Z,992.33
2017-11-08T01:36:45.489Z,992.33
2017-11-08T01:37:45.444Z,992.34
2017-11-08T01:39:39.028Z,992.35
2017-11-08T01:40:38.990Z,992.34
2017-11-08T01:42:32.355Z,992.38
2017-11-08T01:43:32.310Z,992.39
2017-11-08T01:45:25.679Z,992.36
2017-11-08T01:46:25.634Z,992.34
2017-11-08T01:48:19.161Z,992.37
2017-11-08T01:49:18.962Z,992.44
2017-11-08T01:51:12.317Z,992.35
2017-11-08T01:52:12.276Z,992.35
2017-11-08T01:54:05.661Z,992.33
2017-11-08T01:55:05.620Z,992.27
2017-11-08T01:57:01.493Z,992.25
2017-11-08T01:58:01.465Z,992.24
2017-11-08T01:59:54.836Z,992.24
2017-11-08T02:00:54.801Z,992.22
2017-11-08T02:02:48.941Z,992.20
2017-11-08T02:03:48.914Z,992.22
2017-11-08T02:05:42.270Z,992.19
2017-11-08T02:06:42.229Z,992.17
2017-11-08T02:08:35.607Z,992.17
2017-11-08T02:09:35.563Z,992.16
2017-11-08T02:11:28.920Z,992.15
2017-11-08T02:12:28.879Z,992.09
2017-11-08T02:14:22.228Z,992.07
2017-11-08T02:15:22.189Z,992.06
2017-11-08T02:17:15.553Z,992.00
2017-11-08T02:18:15.513Z,992.06
2017-11-08T02:20:08.873Z,992.11
2017-11-08T02:21:08.831Z,992.10
2017-11-08T02:23:02.192Z,992.07
2017-11-08T02:24:02.187Z,992.03
2017-11-08T02:25:55.542Z,992.04
2017-11-08T02:26:55.493Z,992.12
2017-11-08T02:28:48.919Z,992.03
2017-11-08T02:29:48.818Z,991.98
2017-11-08T02:31:44.732Z,992.05
2017-11-08T02:32:44.695Z,992.07
2017-11-08T02:34:38.051Z,992.15
2017-11-08T02:35:38.006Z,992.14
2017-11-08T02:37:31.360Z,992.22
2017-11-08T02:38:31.317Z,992.22
2017-11-08T02:40:24.677Z,992.22
2017-11-08T02:41:24.642Z,992.24
2017-11-08T02:43:18.010Z,992.28
2017-11-08T02:44:17.963Z,992.27
2017-11-08T02:46:13.857Z,992.27
2017-11-08T02:47:13.817Z,992.31
2017-11-08T02:49:07.176Z,992.33
2017-11-08T02:50:07.135Z,992.36
2017-11-08T02:52:00.508Z,992.43
2017-11-08T02:53:00.465Z,992.38
2017-11-08T02:54:53.871Z,992.26
2017-11-08T02:55:53.820Z,992.20
2017-11-08T02:57:47.219Z,992.14
2017-11-08T02:58:47.174Z,992.15
2017-11-08T03:00:43.061Z,992.22
2017-11-08T03:01:43.010Z,992.18
2017-11-08T03:03:36.391Z,992.07
2017-11-08T03:04:36.348Z,992.07
2017-11-08T03:06:29.709Z,992.07
2017-11-08T03:07:29.665Z,992.05
2017-11-08T03:09:23.057Z,992.02
2017-11-08T03:10:23.008Z,991.97
2017-11-08T03:12:16.387Z,991.92
2017-11-08T03:13:16.329Z,991.95
2017-11-08T03:15:09.686Z,991.89
2017-11-08T03:16:09.660Z,991.88
2017-11-08T03:18:03.822Z,991.93
2017-11-08T03:19:03.771Z,991.93
2017-11-08T03:20:57.132Z,991.90
2017-11-08T03:21:57.088Z,991.87
2017-11-08T03:23:50.455Z,991.90
2017-11-08T03:24:50.414Z,991.93
2017-11-08T03:26:43.803Z,991.94
2017-11-08T03:27:43.768Z,991.94
2017-11-08T03:29:39.729Z,991.96
2017-11-08T03:30:39.691Z,991.98
2017-11-08T03:32:33.055Z,991.95
2017-11-08T03:33:33.014Z,991.89
2017-11-08T03:35:28.243Z,991.79
2017-11-08T03:36:28.201Z,991.75
2017-11-08T03:38:21.575Z,991.82
2017-11-08T03:39:21.523Z,991.82
2017-11-08T03:41:15.081Z,991.92
2017-11-08T03:42:15.033Z,991.98
2017-11-08T03:44:08.389Z,991.92
2017-11-08T03:45:08.353Z,991.97
2017-11-08T03:47:04.213Z,992.01
2017-11-08T03:48:04.181Z,991.95
2017-11-08T03:49:57.543Z,991.90
2017-11-08T03:50:57.498Z,991.89
2017-11-08T03:52:51.686Z,991.91
2017-11-08T03:53:51.649Z,991.92
2017-11-08T03:55:45.081Z,991.94
2017-11-08T03:56:44.981Z,991.98
2017-11-08T03:58:38.338Z,991.97
2017-11-08T03:59:38.307Z,991.98
2017-11-08T04:01:31.698Z,991.88
2017-11-08T04:02:31.684Z,991.91
2017-11-08T04:04:28.401Z,991.90
2017-11-08T04:05:28.364Z,991.95
2017-11-08T04:07:21.725Z,991.97
2017-11-08T04:08:21.679Z,991.90
2017-11-08T04:10:15.039Z,991.97
2017-11-08T04:11:14.999Z,991.90
2017-11-08T04:13:10.870Z,991.86
2017-11-08T04:14:10.838Z,991.89
2017-11-08T04:16:04.188Z,992.01
2017-11-08T04:17:04.158Z,992.11
2017-11-08T04:18:58.341Z,992.11
2017-11-08T04:19:58.308Z,992.11
2017-11-08T04:21:52.541Z,992.15
2017-11-08T04:22:52.509Z,992.14
2017-11-08T04:24:45.871Z,992.03
2017-11-08T04:25:45.829Z,992.00
2017-11-08T04:27:41.689Z,991.97
2017-11-08T04:28:41.646Z,991.93
2017-11-08T04:30:35.007Z,991.87
2017-11-08T04:31:34.960Z,991.99
2017-11-08T04:33:28.318Z,992.11
2017-11-08T04:34:28.279Z,992.13
2017-11-08T04:36:21.636Z,992.04
2017-11-08T04:37:21.602Z,991.97
2017-11-08T04:39:15.787Z,991.91
2017-11-08T04:40:15.749Z,991.92
2017-11-08T04:42:09.164Z,992.04
2017-11-08T04:43:09.073Z,992.04
2017-11-08T04:45:02.441Z,992.03
2017-11-08T04:46:02.394Z,991.96
2017-11-08T04:47:55.759Z,991.86
2017-11-08T04:48:55.721Z,991.83
2017-11-08T04:50:49.077Z,991.86
2017-11-08T04:51:49.052Z,991.84
2017-11-08T04:53:42.471Z,991.96
2017-11-08T04:54:42.424Z,992.02
2017-11-08T04:56:35.779Z,992.02
2017-11-08T04:57:35.748Z,991.99
2017-11-08T04:59:29.111Z,991.97
2017-11-08T05:00:29.070Z,991.93
2017-11-08T05:02:22.429Z,991.95
2017-11-08T05:03:22.399Z,992.01
2017-11-08T05:05:15.758Z,992.01
2017-11-08T05:06:15.716Z,991.95
2017-11-08T05:08:09.089Z,991.95
2017-11-08T05:09:09.061Z,991.94
2017-11-08T05:11:02.416Z,992.02
2017-11-08T05:12:02.374Z,992.01
2017-11-08T05:13:55.729Z,991.94
2017-11-08T05:14:55.692Z,991.88
2017-11-08T05:16:49.051Z,991.83
2017-11-08T05:17:49.006Z,991.86
2017-11-08T05:19:44.865Z,991.89
2017-11-08T05:20:44.822Z,991.85
2017-11-08T05:22:38.181Z,991.79
2017-11-08T05:23:38.147Z,991.77
2017-11-08T05:25:32.396Z,991.87
2017-11-08T05:26:32.348Z,991.93
2017-11-08T05:28:28.263Z,991.91
2017-11-08T05:29:28.184Z,991.98
2017-11-08T05:31:21.538Z,992.00
2017-11-08T05:32:21.497Z,991.97
2017-11-08T05:34:14.854Z,991.97
2017-11-08T05:35:14.847Z,991.97
2017-11-08T05:37:10.688Z,991.97
2017-11-08T05:38:10.640Z,991.97
2017-11-08T05:40:04.007Z,991.92
2017-11-08T05:41:03.973Z,991.90
2017-11-08T05:43:00.043Z,991.98
2017-11-08T05:43:59.999Z,992.05
2017-11-08T05:45:53.357Z,992.07
2017-11-08T05:46:53.323Z,992.06
2017-11-08T05:48:46.675Z,991.95
2017-11-08T05:49:46.627Z,991.91
2017-11-08T05:51:42.494Z,991.91
2017-11-08T05:52:42.442Z,992.05
2017-11-08T05:54:35.813Z,992.15
2017-11-08T05:55:35.770Z,992.16
2017-11-08T05:57:29.136Z,992.09
2017-11-08T05:58:29.095Z,992.15
2017-11-08T06:00:22.467Z,992.24
2017-11-08T06:01:22.427Z,992.25
2017-11-08T06:03:15.803Z,992.27
2017-11-08T06:04:15.760Z,992.31
2017-11-08T06:06:09.125Z,992.33
2017-11-08T06:07:09.082Z,992.34
2017-11-08T06:09:04.957Z,992.35
2017-11-08T06:10:04.908Z,992.38
2017-11-08T06:11:58.281Z,992.48
2017-11-08T06:12:58.243Z,992.53
2017-11-08T06:14:54.100Z,992.50
2017-11-08T06:15:54.066Z,992.52
2017-11-08T06:17:48.320Z,992.49
2017-11-08T06:18:48.278Z,992.52
2017-11-08T06:20:41.642Z,992.53
2017-11-08T06:21:41.605Z,992.56
2017-11-08T06:23:34.962Z,992.63
2017-11-08T06:24:34.923Z,992.63
2017-11-08T06:26:28.410Z,992.66
2017-11-08T06:27:28.271Z,992.66
2017-11-08T06:29:21.613Z,992.63
2017-11-08T06:30:21.573Z,992.64
2017-11-08T06:32:14.954Z,992.72
2017-11-08T06:33:14.907Z,992.73
2017-11-08T06:35:08.322Z,992.74
2017-11-08T06:36:08.257Z,992.78
2017-11-08T06:38:01.682Z,992.82
2017-11-08T06:39:01.567Z,992.79
2017-11-08T06:40:54.946Z,992.81
2017-11-08T06:41:54.890Z,992.77
2017-11-08T06:43:48.466Z,992.74
2017-11-08T06:44:48.434Z,992.72
2017-11-08T06:46:41.764Z,992.73
2017-11-08T06:47:41.720Z,992.74
2017-11-08T06:49:35.084Z,992.71
2017-11-08T06:50:35.048Z,992.72
2017-11-08T06:52:28.407Z,992.79
2017-11-08T06:53:28.369Z,992.76
2017-11-08T06:55:21.720Z,992.77
2017-11-08T06:56:21.679Z,992.69
2017-11-08T06:58:15.032Z,992.71
2017-11-08T06:59:14.988Z,992.72
2017-11-08T07:01:08.520Z,992.72
2017-11-08T07:02:08.403Z,992.66
2017-11-08T07:04:01.760Z,992.76
2017-11-08T07:05:01.723Z,992.80
2017-11-08T07:06:57.590Z,992.85
2017-11-08T07:07:57.556Z,992.87
2017-11-08T07:09:50.920Z,992.94
2017-11-08T07:10:50.869Z,992.92
2017-11-08T07:12:45.035Z,992.85
2017-11-08T07:13:44.987Z,992.82
2017-11-08T07:15:40.852Z,992.83
2017-11-08T07:16:40.813Z,992.81
2017-11-08T07:18:36.982Z,992.84
2017-11-08T07:19:36.631Z,992.81
2017-11-08T07:21:29.989Z,992.75
2017-11-08T07:22:29.946Z,992.73
2017-11-08T07:24:23.312Z,992.76
2017-11-08T07:25:23.290Z,992.77
2017-11-08T07:27:19.295Z,992.77
2017-11-08T07:28:19.100Z,992.76
2017-11-08T07:30:12.460Z,992.73
2017-11-08T07:31:12.434Z,992.77
2017-11-08T07:33:05.896Z,992.82
2017-11-08T07:34:05.740Z,992.78
2017-11-08T07:35:58.639Z,992.80
2017-11-08T07:36:58.600Z,992.83
2017-11-08T07:38:54.461Z,992.86
2017-11-08T07:39:54.422Z,992.86
2017-11-08T07:41:50.288Z,992.81
2017-11-08T07:42:50.245Z,992.81
2017-11-08T07:44:46.117Z,992.83
2017-11-08T07:45:46.067Z,992.83
2017-11-08T07:47:41.928Z,992.84
2017-11-08T07:48:41.882Z,992.85
2017-11-08T07:50:35.262Z,992.91
2017-11-08T07:51:35.234Z,992.90
2017-11-08T07:53:28.598Z,992.88
2017-11-08T07:54:28.604Z,992.83
2017-11-08T07:56:21.917Z,992.88
2017-11-08T07:57:21.876Z,992.88
2017-11-08T07:59:17.739Z,992.81
2017-11-08T08:00:17.699Z,992.79
2017-11-08T08:02:11.077Z,992.78
2017-11-08T08:03:11.028Z,992.84
2017-11-08T08:05:04.388Z,992.85
2017-11-08T08:06:04.348Z,992.91
2017-11-08T08:07:57.710Z,992.94
2017-11-08T08:08:57.674Z,992.98
2017-11-08T08:10:51.032Z,992.98
2017-11-08T08:11:51.004Z,992.96
2017-11-08T08:13:44.407Z,992.86
2017-11-08T08:14:44.368Z,992.89
2017-11-08T08:16:38.575Z,992.95
2017-11-08T08:17:38.543Z,992.98
2017-11-08T08:19:31.909Z,992.97
2017-11-08T08:20:31.878Z,992.92
2017-11-08T08:22:27.758Z,992.88
2017-11-08T08:23:27.720Z,992.84
2017-11-08T08:25:21.096Z,992.87
2017-11-08T08:26:21.037Z,992.84
2017-11-08T08:28:15.210Z,992.82
2017-11-08T08:29:15.167Z,992.84
2017-11-08T08:31:11.038Z,992.90
2017-11-08T08:32:10.996Z,992.93
2017-11-08T08:34:04.401Z,993.00
2017-11-08T08:35:04.354Z,993.02
2017-11-08T08:37:00.204Z,993.04
2017-11-08T08:38:00.159Z,993.04
2017-11-08T08:39:56.051Z,992.89
2017-11-08T08:40:55.986Z,992.83
2017-11-08T08:42:49.343Z,992.84
2017-11-08T08:43:49.302Z,992.83
2017-11-08T08:45:42.741Z,992.81
2017-11-08T08:46:42.718Z,992.78
2017-11-08T08:48:36.070Z,992.77
2017-11-08T08:49:36.015Z,992.81
2017-11-08T08:51:31.901Z,992.77
2017-11-08T08:52:31.864Z,992.79
2017-11-08T08:54:27.744Z,992.77
2017-11-08T08:55:27.668Z,992.75
2017-11-08T08:57:21.026Z,992.72
2017-11-08T08:58:20.986Z,992.66
2017-11-08T09:00:14.359Z,992.71
2017-11-08T09:01:14.310Z,992.77
2017-11-08T09:03:07.677Z,992.81
2017-11-08T09:04:07.634Z,992.85
2017-11-08T09:06:00.998Z,992.92
2017-11-08T09:07:00.956Z,992.93
2017-11-08T09:08:54.313Z,992.96
2017-11-08T09:09:54.279Z,992.97
2017-11-08T09:11:47.633Z,993.06
2017-11-08T09:12:47.596Z,993.04
2017-11-08T09:14:43.467Z,993.08
2017-11-08T09:15:43.426Z,993.08
2017-11-08T09:17:37.791Z,993.08
2017-11-08T09:18:37.801Z,993.10
2017-11-08T09:20:31.104Z,993.08
2017-11-08T09:21:31.063Z,993.11
2017-11-08T09:23:24.507Z,993.18
2017-11-08T09:24:24.401Z,993.19
2017-11-08T09:26:18.653Z,993.27
2017-11-08T09:27:18.615Z,993.27
2017-11-08T09:29:11.976Z,993.25
2017-11-08T09:30:11.927Z,993.20
2017-11-08T09:32:05.292Z,993.17
2017-11-08T09:33:05.253Z,993.08
2017-11-08T09:34:58.614Z,993.14
2017-11-08T09:35:58.573Z,993.16
2017-11-08T09:37:51.950Z,993.22
2017-11-08T09:38:51.917Z,993.26
2017-11-08T09:40:45.276Z,993.32
2017-11-08T09:41:45.238Z,993.32
2017-11-08T09:43:41.298Z,993.33
2017-11-08T09:44:41.254Z,993.33
2017-11-08T09:46:34.728Z,993.34
2017-11-08T09:47:34.580Z,993.37
2017-11-08T09:49:27.942Z,993.39
2017-11-08T09:50:27.892Z,993.40
2017-11-08T09:52:21.253Z,993.41
2017-11-08T09:53:21.210Z,993.46
2017-11-08T09:55:14.568Z,993.50
2017-11-08T09:56:14.531Z,993.56
2017-11-08T09:58:07.905Z,993.55
2017-11-08T09:59:07.894Z,993.58
2017-11-08T10:01:01.257Z,993.61
2017-11-08T10:02:01.211Z,993.64
2017-11-08T10:03:54.587Z,993.68
2017-11-08T10:04:54.586Z,993.69
2017-11-08T10:06:50.425Z,993.69
2017-11-08T10:07:50.361Z,993.68
2017-11-08T10:09:43.843Z,993.68
2017-11-08T10:10:43.801Z,993.69
2017-11-08T10:12:37.157Z,993.72
2017-11-08T10:13:37.118Z,993.71
2017-11-08T10:15:32.971Z,993.67
2017-11-08T10:16:32.938Z,993.60
2017-11-08T10:18:26.313Z,993.57
2017-11-08T10:19:26.272Z,993.56
2017-11-08T10:21:19.627Z,993.58
2017-11-08T10:22:19.587Z,993.59
2017-11-08T10:24:12.948Z,993.54
2017-11-08T10:25:12.957Z,993.53
2017-11-08T10:27:08.785Z,993.57
2017-11-08T10:28:08.754Z,993.56
2017-11-08T10:30:02.135Z,993.55
2017-11-08T10:31:02.067Z,993.53
2017-11-08T10:32:56.505Z,993.50
2017-11-08T10:33:56.263Z,993.52
2017-11-08T10:35:49.620Z,993.58
2017-11-08T10:36:49.583Z,993.58
2017-11-08T10:38:42.976Z,993.62
2017-11-08T10:39:42.905Z,993.64
2017-11-08T10:41:36.268Z,993.62
2017-11-08T10:42:36.186Z,993.66
2017-11-08T10:44:29.566Z,993.65
2017-11-08T10:45:29.512Z,993.63
2017-11-08T10:47:22.870Z,993.56
2017-11-08T10:48:22.833Z,993.50
2017-11-08T10:50:16.212Z,993.51
2017-11-08T10:51:16.166Z,993.50
2017-11-08T10:53:09.529Z,993.52
2017-11-08T10:54:09.490Z,993.51
2017-11-08T10:56:02.847Z,993.45
2017-11-08T10:57:02.811Z,993.47
2017-11-08T10:58:57.001Z,993.45
2017-11-08T10:59:56.980Z,993.42
2017-11-08T11:01:50.363Z,993.30
2017-11-08T11:02:50.324Z,993.21
2017-11-08T11:04:43.683Z,993.24
2017-11-08T11:05:43.664Z,993.28
2017-11-08T11:07:39.521Z,993.25
2017-11-08T11:08:39.480Z,993.23
2017-11-08T11:10:32.852Z,993.21
2017-11-08T11:11:32.807Z,993.23
2017-11-08T11:13:29.558Z,993.20
2017-11-08T11:14:29.514Z,993.18
2017-11-08T11:16:22.866Z,993.21
2017-11-08T11:17:22.836Z,993.23
2017-11-08T11:19:18.727Z,993.34
2017-11-08T11:20:18.688Z,993.37
2017-11-08T11:22:14.555Z,993.42
2017-11-08T11:23:14.505Z,993.43
2017-11-08T11:25:10.377Z,993.50
2017-11-08T11:26:10.332Z,993.51
2017-11-08T11:28:03.700Z,993.44
2017-11-08T11:29:03.658Z,993.43
2017-11-08T11:30:57.022Z,993.43
2017-11-08T11:31:56.976Z,993.37
2017-11-08T11:33:50.334Z,993.36
2017-11-08T11:34:50.295Z,993.34
2017-11-08T11:36:44.567Z,993.38
2017-11-08T11:37:44.532Z,993.43
2017-11-08T11:39:40.391Z,993.38
2017-11-08T11:40:40.354Z,993.43
2017-11-08T11:42:33.710Z,993.40
2017-11-08T11:43:33.693Z,993.35
2017-11-08T11:45:27.022Z,993.36
2017-11-08T11:46:26.991Z,993.35
2017-11-08T11:48:22.869Z,993.38
2017-11-08T11:49:22.818Z,993.38
2017-11-08T11:51:16.185Z,993.36
2017-11-08T11:52:16.135Z,993.38
2017-11-08T11:54:09.506Z,993.45
2017-11-08T11:55:09.475Z,993.53
2017-11-08T11:57:02.823Z,993.56
2017-11-08T11:58:02.791Z,993.55
2017-11-08T11:59:56.174Z,993.51
2017-11-08T12:00:56.143Z,993.49
2017-11-08T12:02:49.457Z,993.53
2017-11-08T12:03:49.418Z,993.55
2017-11-08T12:05:42.807Z,993.53
2017-11-08T12:06:42.769Z,993.52
2017-11-08T12:08:38.625Z,993.43
2017-11-08T12:09:38.590Z,993.36
2017-11-08T12:11:31.954Z,993.33
2017-11-08T12:12:31.922Z,993.41
2017-11-08T12:14:25.277Z,993.43
2017-11-08T12:15:25.236Z,993.40
2017-11-08T12:17:21.109Z,993.40
2017-11-08T12:18:21.079Z,993.36
2017-11-08T12:20:14.432Z,993.30
2017-11-08T12:21:14.390Z,993.36
2017-11-08T12:23:08.628Z,993.44
2017-11-08T12:24:08.580Z,993.46
2017-11-08T12:26:01.932Z,993.54
2017-11-08T12:27:01.894Z,993.53
2017-11-08T12:28:55.248Z,993.50
2017-11-08T12:29:55.208Z,993.46
2017-11-08T12:31:51.102Z,993.46
2017-11-08T12:32:51.058Z,993.46
2017-11-08T12:34:44.426Z,993.52
2017-11-08T12:35:44.377Z,993.47
2017-11-08T12:37:37.733Z,993.51
2017-11-08T12:38:37.694Z,993.47
2017-11-08T12:40:33.548Z,993.45
2017-11-08T12:41:33.509Z,993.40
2017-11-08T12:43:31.939Z,993.42
2017-11-08T12:44:26.832Z,993.39
2017-11-08T12:46:20.193Z,993.39
2017-11-08T12:47:20.155Z,993.35
2017-11-08T12:49:16.016Z,993.33
2017-11-08T12:50:15.985Z,993.37
2017-11-08T12:52:09.341Z,993.40
2017-11-08T12:53:09.294Z,993.41
2017-11-08T12:55:03.494Z,993.44
2017-11-08T12:56:03.455Z,993.39
2017-11-08T12:57:56.824Z,993.40
2017-11-08T12:58:56.792Z,993.41
2017-11-08T13:00:50.154Z,993.37
2017-11-08T13:01:50.108Z,993.36
2017-11-08T13:03:46.069Z,993.34
2017-11-08T13:04:45.986Z,993.31
2017-11-08T13:06:40.362Z,993.24
2017-11-08T13:07:40.321Z,993.26
2017-11-08T13:09:33.730Z,993.25
2017-11-08T13:10:33.678Z,993.27
2017-11-08T13:12:27.041Z,993.27
2017-11-08T13:13:26.995Z,993.32
2017-11-08T13:15:20.369Z,993.34
2017-11-08T13:16:20.324Z,993.33
2017-11-08T13:18:14.596Z,993.35
2017-11-08T13:19:14.523Z,993.35
2017-11-08T13:21:07.905Z,993.34
2017-11-08T13:22:07.873Z,993.37
2017-11-08T13:24:01.234Z,993.35
2017-11-08T13:25:01.192Z,993.34
2017-11-08T13:26:57.079Z,993.41
2017-11-08T13:27:57.036Z,993.40
2017-11-08T13:29:50.408Z,993.45
2017-11-08T13:30:50.373Z,993.46
2017-11-08T13:32:46.246Z,993.54
2017-11-08T13:33:46.206Z,993.52
2017-11-08T13:35:39.598Z,993.54
2017-11-08T13:36:39.544Z,993.52
2017-11-08T13:38:32.903Z,993.56
2017-11-08T13:39:32.874Z,993.54
2017-11-08T13:41:27.183Z,993.60
2017-11-08T13:42:27.066Z,993.63
2017-11-08T13:44:21.502Z,993.61
2017-11-08T13:45:21.297Z,993.59
2017-11-08T13:47:14.680Z,993.59
2017-11-08T13:48:14.641Z,993.62
2017-11-08T13:50:10.535Z,993.69
2017-11-08T13:51:10.498Z,993.73
2017-11-08T13:53:06.409Z,993.75
2017-11-08T13:54:06.335Z,993.70
2017-11-08T13:56:02.206Z,993.69
2017-11-08T13:57:02.168Z,993.70
2017-11-08T13:58:58.170Z,993.72
2017-11-08T13:59:58.102Z,993.67
2017-11-08T14:01:51.440Z,993.67
2017-11-08T14:02:51.423Z,993.68
2017-11-08T14:04:45.796Z,993.76
2017-11-08T14:05:45.725Z,993.81
2017-11-08T14:07:41.606Z,993.84
2017-11-08T14:08:41.569Z,993.89
2017-11-08T14:10:34.947Z,993.92
2017-11-08T14:11:34.899Z,993.90
2017-11-08T14:13:28.256Z,993.90
2017-11-08T14:14:28.219Z,993.91
2017-11-08T14:16:24.131Z,993.87
2017-11-08T14:17:24.064Z,993.89
2017-11-08T14:19:17.452Z,993.86
2017-11-08T14:20:17.398Z,993.83
2017-11-08T14:22:10.992Z,993.82
2017-11-08T14:23:10.954Z,993.78
2017-11-08T14:25:04.324Z,993.75
2017-11-08T14:26:04.280Z,993.75
2017-11-08T14:28:00.164Z,993.78
2017-11-08T14:29:00.124Z,993.77
2017-11-08T14:30:53.499Z,993.78
2017-11-08T14:31:53.498Z,993.81
2017-11-08T14:33:49.345Z,993.81
2017-11-08T14:34:49.305Z,993.80
2017-11-08T14:36:43.671Z,993.81
2017-11-08T14:37:43.631Z,993.88
2017-11-08T14:39:36.990Z,993.89
2017-11-08T14:40:36.955Z,993.91
2017-11-08T14:42:30.324Z,993.92
2017-11-08T14:43:30.284Z,993.94
2017-11-08T14:45:23.661Z,993.97
2017-11-08T14:46:23.627Z,993.94
2017-11-08T14:48:19.533Z,993.97
2017-11-08T14:49:19.458Z,994.02
2017-11-08T14:51:13.056Z,994.04
2017-11-08T14:52:13.020Z,994.05
2017-11-08T14:54:08.896Z,994.01
2017-11-08T14:55:08.846Z,993.99
2017-11-08T14:57:02.208Z,993.98
2017-11-08T14:58:02.167Z,994.01
2017-11-08T14:59:58.087Z,993.97
2017-11-08T15:00:58.047Z,993.97
2017-11-08T15:02:53.930Z,993.95
2017-11-08T15:03:53.892Z,993.92
2017-11-08T15:05:47.252Z,993.91
2017-11-08T15:06:47.208Z,993.92
2017-11-08T15:08:40.634Z,993.94
2017-11-08T15:09:40.601Z,993.95
2017-11-08T15:11:33.972Z,993.96
2017-11-08T15:12:33.925Z,994.00
2017-11-08T15:14:27.426Z,993.99
2017-11-08T15:15:27.394Z,994.05
2017-11-08T15:17:23.254Z,994.03
2017-11-08T15:18:23.214Z,994.02
2017-11-08T15:20:16.623Z,994.03
2017-11-08T15:21:16.543Z,994.05
2017-11-08T15:23:09.915Z,994.02
2017-11-08T15:24:09.888Z,994.04
2017-11-08T15:26:03.258Z,994.05
2017-11-08T15:27:03.218Z,994.03
2017-11-08T15:28:56.636Z,994.07
2017-11-08T15:29:56.540Z,994.01
2017-11-08T15:31:52.430Z,993.98
2017-11-08T15:32:52.373Z,993.97
2017-11-08T15:34:45.727Z,993.98
2017-11-08T15:35:45.700Z,994.01
2017-11-08T15:37:39.077Z,993.97
2017-11-08T15:38:39.039Z,993.97
2017-11-08T15:40:34.902Z,994.00
2017-11-08T15:41:34.869Z,993.96
2017-11-08T15:43:30.739Z,993.92
2017-11-08T15:44:30.696Z,993.91
2017-11-08T15:46:26.570Z,993.96
2017-11-08T15:47:26.554Z,993.94
2017-11-08T15:49:19.906Z,994.01
2017-11-08T15:50:19.864Z,993.98
2017-11-08T15:52:15.753Z,994.02
2017-11-08T15:53:15.741Z,994.00
2017-11-08T15:55:11.637Z,994.02
2017-11-08T15:56:11.579Z,994.05
2017-11-08T15:58:07.447Z,994.06
2017-11-08T15:59:07.402Z,994.07
2017-11-08T16:01:04.131Z,994.09
2017-11-08T16:02:04.100Z,994.10
2017-11-08T16:04:07.633Z,994.10
2017-11-08T16:04:59.938Z,994.11
2017-11-08T16:06:54.164Z,994.09
2017-11-08T16:07:54.111Z,994.04
2017-11-08T16:09:47.584Z,994.07
2017-11-08T16:10:47.433Z,994.07
2017-11-08T16:12:40.812Z,994.10
2017-11-08T16:13:40.766Z,994.13
2017-11-08T16:15:34.126Z,994.17
2017-11-08T16:16:34.089Z,994.17
2017-11-08T16:18:31.535Z,994.24
2017-11-08T16:19:29.927Z,994.24
2017-11-08T16:21:23.299Z,994.22
2017-11-08T16:22:23.245Z,994.20
2017-11-08T16:24:19.118Z,994.27
2017-11-08T16:25:19.079Z,994.24
2017-11-08T16:27:12.645Z,994.27
2017-11-08T16:28:12.597Z,994.36
2017-11-08T16:30:06.122Z,994.30
2017-11-08T16:31:05.926Z,994.33
2017-11-08T16:32:59.282Z,994.32
2017-11-08T16:33:59.239Z,994.33
2017-11-08T16:35:55.109Z,994.37
2017-11-08T16:36:55.078Z,994.40
2017-11-08T16:38:48.419Z,994.40
2017-11-08T16:39:48.375Z,994.39
2017-11-08T16:41:41.737Z,994.41
2017-11-08T16:42:41.692Z,994.34
2017-11-08T16:44:38.423Z,994.34
2017-11-08T16:45:38.383Z,994.35
2017-11-08T16:47:31.805Z,994.30
2017-11-08T16:48:31.710Z,994.36
2017-11-08T16:50:28.441Z,994.35
2017-11-08T16:51:28.408Z,994.38
2017-11-08T16:53:21.298Z,994.40
2017-11-08T16:54:21.238Z,994.37
2017-11-08T16:56:14.628Z,994.36
2017-11-08T16:57:14.589Z,994.37
2017-11-08T16:59:07.950Z,994.36
2017-11-08T17:00:07.917Z,994.36
2017-11-08T17:02:01.274Z,994.41
2017-11-08T17:03:01.231Z,994.40
2017-11-08T17:04:54.606Z,994.47
2017-11-08T17:05:54.559Z,994.45
2017-11-08T17:07:48.487Z,994.46
2017-11-08T17:08:47.879Z,994.47
2017-11-08T17:10:41.453Z,994.50
2017-11-08T17:11:41.419Z,994.48
2017-11-08T17:13:34.910Z,994.49
2017-11-08T17:14:34.750Z,994.49
2017-11-08T17:16:34.174Z,994.50
2017-11-08T17:17:28.957Z,994.49
2017-11-08T17:19:24.200Z,994.45
2017-11-08T17:20:24.165Z,994.50
2017-11-08T17:22:20.048Z,994.49
2017-11-08T17:23:20.018Z,994.48
2017-11-08T17:25:13.361Z,994.54
2017-11-08T17:26:13.322Z,994.52
2017-11-08T17:28:07.191Z,994.53
2017-11-08T17:29:07.153Z,994.51
2017-11-08T17:31:00.525Z,994.55
2017-11-08T17:32:00.499Z,994.56
2017-11-08T17:33:57.243Z,994.60
2017-11-08T17:34:57.205Z,994.61
2017-11-08T17:36:51.514Z,994.64
2017-11-08T17:37:50.517Z,994.64
2017-11-08T17:39:43.922Z,994.68
2017-11-08T17:40:43.848Z,994.61
2017-11-08T17:42:37.212Z,994.68
2017-11-08T17:43:37.170Z,994.69
2017-11-08T17:45:30.533Z,994.70
2017-11-08T17:46:30.498Z,994.71
2017-11-08T17:48:26.366Z,994.71
2017-11-08T17:49:26.326Z,994.70
2017-11-08T17:51:22.216Z,994.73
2017-11-08T17:52:22.175Z,994.70
2017-11-08T17:54:15.541Z,994.76
2017-11-08T17:55:15.488Z,994.73
2017-11-08T17:57:08.877Z,994.79
2017-11-08T17:58:08.848Z,994.84
2017-11-08T18:00:02.309Z,994.82
2017-11-08T18:01:02.184Z,994.79
2017-11-08T18:02:55.521Z,994.79
2017-11-08T18:03:55.484Z,994.82
2017-11-08T18:05:48.364Z,994.80